Key West, FL

6:03 AM EDT on July 27, 2016 (GMT -0400)
Big Coppitt Key Gulfside | | Change Station

Elev 31 ft 24.60 °N, 81.67 °W | Updated 12 minutes ago

Light Rain
Light Rain
75.2 °F
Feels Like 75 °F
N
0.0
Wind Variable Wind from SSE

Today
High -- | Low -- °F
--% Chance of Precip.
Yesterday
High -- | Low -- °F
Precip. -- in
Pressure 30.04 in
Visibility 10.0 miles
Clouds Few 5000 ft
Mostly Cloudy 8000 ft
Mostly Cloudy 10000 ft
Heat Index 75 °F
Dew Point 71 °F
Humidity 88%
Rainfall 1.08 in
Snow Depth Not available.
6:52 AM 8:13 PM
Last Quarter, 45% visible
METAR KEYW 270953Z AUTO 11006KT 10SM VCTS -RA FEW050 BKN080 BKN100 25/24 A3003 RMK AO2 PK WND 12038/0859 WSHFT 0854 LTG DSNT ALQDS RAB0857 TSE50 SLP170 P0044 T02500239
Pressure 30.04 in
Visibility 10.0 miles
Clouds Few 5000 ft
Mostly Cloudy 8000 ft
Mostly Cloudy 10000 ft
Heat Index 75 °F
Dew Point 71 °F
Humidity 88%
Rainfall 1.08 in
Snow Depth Not available.
6:52 AM 8:13 PM
Last Quarter, 45% visible
METAR KEYW 270953Z AUTO 11006KT 10SM VCTS -RA FEW050 BKN080 BKN100 25/24 A3003 RMK AO2 PK WND 12038/0859 WSHFT 0854 LTG DSNT ALQDS RAB0857 TSE50 SLP170 P0044 T02500239

10-Day Weather Forecast

Almanac

Astronomy

Jul. 27, 2016 Rise Set
Actual Time
Civil Twilight
Nautical Twilight
Astronomical Twilight
Moon
Length of Visible Light
Length of Day
Tomorrow will be .
, % of the Moon is Illuminated

Today's Extremes

State Highs State Lows

Community

WunderPhotos

Upload Photos

1,927,816 photos uploaded!

WunderBlog® & News

Nearby

Air Quality

  Air Quality AQ Index Pollutant
Not available.

Snow Depth

Station Depth Elevation

Earthquake Activity

City Distance Mag. Time & Date
Minimum magnitude displayed is 2.5.

Coastal Water Temperatures

Place Temperature

Stations

Nearby Weather Stations

Station Location Temp. Windchill Dew Point Humidity Wind Precip. Elev Updated Type
                   

Watches & Warnings

There are currently no watches in effect.